Kobe, Japan

2:03 AM JST on December 28, 2014 (GMT +0900)
North Kobe | Change Station
CLOSE
Current Station
Personal Weather Station
Location: Kobe, Prefettura di Hyogo
Elevation: 965 ft
Nearby Weather Stations

Elev 965 ft 34.73 °N, 135.13 °E | Updated 3 minutes ago

Partly Cloudy
Partly Cloudy
32.7 °F
Feels Like 33 °F
N
0.0
Wind Variable Wind from East
Gusts 2.0 mph

Today
High -- | Low -- °F
--% Chance of Precip.
Yesterday
High -- | Low -- °F
Precip. -- in
7:05 AM 4:56 PM
Waxing Crescent, 38% visible
Pressure 30.30 in
Visibility 6.2 miles
Clouds Few 2500 ft
Windchill 33 °F
Dew Point 25 °F
Humidity 72%
Rainfall 0.00 in
Snow Depth Not available.
UV 0 out of 12
Pollen Not available.
Air Quality Not available.
Flu Activity Not available.
METAR RJBB 271630Z 06005KT 9999 FEW025 04/00 Q1026 NOSIG

More Conditions Fewer Conditions

Pressure 30.30 in
Visibility 6.2 miles
Clouds Few 2500 ft
Windchill 33 °F
Dew Point 25 °F
Humidity 72%
Rainfall 0.00 in
Snow Depth Not available.
UV 0 out of 12
Pollen Not available.
Air Quality Not available.
Flu Activity Not available.
METAR RJBB 271630Z 06005KT 9999 FEW025 04/00 Q1026 NOSIG

More Conditions Fewer Conditions

10-Day Weather Forecast

Almanac

Astronomy

Dec. 28, 2014 Rise Set
Actual Time
Civil Twilight
Nautical Twilight
Astronomical Twilight
Moon
Length of Visible Light
Length of Day
Tomorrow will be .
, % of the Moon is Illuminated

Today's Extremes

Country Highs Country Lows

Community

WunderPhotos

Upload Photos

1,780,966 photos uploaded!

WunderBlogs® & News

Nearby

Air Quality

  Air Quality AQ Index Pollutant
Not available.

Snow Depth

Station Depth Elevation

Earthquake Activity

City Distance Mag. Time & Date
Minimum magnitude displayed is 2.5.

Coastal Water Temperatures

Place Temperature

Nearby Weather Stations